CDT,Max TemperatureF,Mean TemperatureF,Min TemperatureF,Max Dew PointF,MeanDew PointF,Min DewpointF,Max Humidity, Mean Humidity, Min Humidity, Max Sea Level PressureIn, Mean Sea Level PressureIn, Min Sea Level PressureIn, Max VisibilityMiles, Mean VisibilityMiles, Min VisibilityMiles, Max Wind SpeedMPH, Mean Wind SpeedMPH, Max Gust SpeedMPH,PrecipitationIn, CloudCover, Events, WindDirDegrees
2013-3-1,44,36,28,28,25,21,93,69,49,30.35,30.26,30.19,10,10,10,29,11,36,0.00,2,,329
2013-3-2,62,44,26,32,29,23,93,64,27,30.35,30.26,30.15,10,10,10,15,8,20,0.00,0,,264
2013-3-3,73,54,35,36,29,23,81,44,15,30.14,29.83,29.60,10,10,10,32,14,38,0.00,0,,230
2013-3-4,64,48,32,36,30,25,87,48,29,30.20,29.76,29.59,10,10,10,36,15,47,0.00,2,Rain,344
2013-3-5,44,34,24,28,16,9,87,51,27,30.42,30.34,30.19,10,10,10,24,14,29,0.00,1,Rain,356
2013-3-6,51,40,28,18,16,12,64,39,27,30.32,30.19,30.01,10,10,10,30,16,37,0.00,0,Thunderstorm,170
2013-3-7,76,54,32,34,23,15,57,34,16,30.01,29.97,29.93,10,10,10,25,16,32,0.00,0,,178
2013-3-8,65,56,48,54,45,35,94,70,50,29.97,29.89,29.78,10,10,2,29,19,36,0.00,4,Rain-Thunderstorm,170
2013-3-9,60,48,35,53,37,20,95,64,22,29.82,29.71,29.62,10,10,5,34,17,40,0.00,4,Rain-Thunderstorm,235
2013-3-10,38,32,23,30,20,14,92,62,37,30.11,29.99,29.76,10,9,3,40,29,50,0.00,5,Rain-Snow,345
2013-3-11,64,42,21,30,21,16,82,51,16,30.10,29.99,29.90,10,10,10,16,9,18,0.00,0,,261
2013-3-12,52,42,34,32,28,23,87,62,33,30.35,30.21,29.92,10,10,10,23,12,31,0.00,0,,57
2013-3-13,65,48,31,34,30,26,83,54,27,30.37,30.31,30.24,10,10,10,24,11,31,0.00,0,,195
2013-3-14,74,56,37,37,30,25,72,43,17,30.26,30.21,30.15,10,10,10,14,9,,0.00,0,,170
2013-3-15,83,62,41,38,29,19,77,37,10,30.16,29.97,29.81,10,10,10,16,8,24,0.00,0,,250
2013-3-16,59,50,40,38,32,22,75,49,25,29.92,29.83,29.73,10,10,10,28,14,34,0.00,0,,29
2013-3-17,64,46,30,44,30,26,82,60,31,29.91,29.77,29.59,10,10,7,22,12,30,0.00,1,Rain,104
2013-3-18,56,44,32,35,23,12,90,47,20,30.04,29.92,29.62,10,10,5,21,11,24,0.00,0,,35
2013-3-19,53,45,37,30,26,19,61,49,34,30.25,30.07,29.95,10,10,10,22,11,23,0.00,2,,114
2013-3-20,60,44,27,24,19,15,67,38,19,30.34,30.18,29.87,10,10,10,23,9,29,0.00,0,,198
2013-3-21,74,56,39,40,29,22,79,40,15,29.86,29.61,29.46,10,10,10,25,15,33,0.00,0,,176
2013-3-22,54,42,30,37,30,28,90,64,38,29.92,29.82,29.67,10,10,5,23,11,30,0.00,1,,73
2013-3-23,44,34,23,37,32,21,95,87,75,30.08,29.80,29.63,10,5,1,32,16,39,0.00,7,Rain-Snow-Thunderstorm,116
2013-3-24,36,28,19,20,16,13,87,67,38,30.21,30.14,30.07,10,10,10,30,19,33,0.00,1,,4
2013-3-25,42,32,21,23,15,10,82,54,31,30.36,30.29,30.21,10,10,10,18,7,25,0.00,3,,3
2013-3-26,60,40,20,16,13,11,75,40,14,30.35,30.22,30.05,10,10,10,31,12,39,0.00,0,,178
2013-3-27,68,54,41,27,21,12,48,30,18,30.07,30.02,29.98,10,10,10,23,16,30,0.00,0,,178
2013-3-28,70,52,34,38,32,28,81,52,25,30.11,30.06,30.02,10,10,10,12,7,,0.00,0,,47
2013-3-29,67,54,40,49,45,38,97,74,47,30.11,30.05,30.01,10,8,0,9,7,,0.00,2,Fog,98
2013-3-30,77,59,41,49,38,25,96,53,15,30.05,30.00,29.94,10,9,2,17,9,22,0.00,0,,16
2013-3-31,65,56,46,46,37,25,92,58,22,30.12,30.06,29.96,10,10,5,31,13,43,0.00,2,Rain-Thunderstorm,41